Terminal Aerodrome Forecast
Issued by NWS

Home | Current Version | Previous Version | Text Only | Print | Product List | Glossary On
Versions: 1 2 3 4 5 6 7 8 9 10 11 12
000
FTUS42 TJSJ 071747
TAFJBQ
TAF
TJBQ 071747Z 0718/0818 08015G20KT P6SM SCT025
     FM072300 10012KT P6SM SCT025
     FM080600 10006KT P6SM FEW019
      AMD NOT SKED 0802/0811=

USA.gov is the U.S. government's official web portal to all federal, state and local government web resources and services.